Time;durP1;ratioP1;P1;durP2;ratioP2;P2;SDS_P1;SDS_P2;PMS_P1;PMS_P2;Temp;Humidity;BMP_temperature;BMP_pressure;BME280_temperature;BME280_humidity;BME280_pressure;Samples;Min_cycle;Max_cycle;Signal;HPM_P1;HPM_P2
2022/11/14 00:02:10;;;;;;;20.07;10.73;;;7.20;99.90;;;;;;4932243;29;20652;-65
2022/11/14 00:04:36;;;;;;;12.67;9.77;;;7.20;99.90;;;;;;4947331;29;20190;-64
2022/11/14 00:07:02;;;;;;;17.23;11.43;;;7.30;99.90;;;;;;4932598;29;20205;-65
2022/11/14 00:09:28;;;;;;;13.47;10.90;;;7.20;99.90;;;;;;4932865;29;20183;-66
2022/11/14 00:11:55;;;;;;;14.23;10.63;;;7.20;99.90;;;;;;4930397;29;20273;-65
2022/11/14 00:14:21;;;;;;;14.67;10.60;;;7.20;99.90;;;;;;4932692;29;20447;-65
2022/11/14 00:16:47;;;;;;;20.07;12.10;;;7.30;99.90;;;;;;4933073;29;20449;-66
2022/11/14 00:19:13;;;;;;;16.60;11.13;;;7.20;99.90;;;;;;4932933;29;20932;-65
2022/11/14 00:21:39;;;;;;;14.10;10.73;;;7.30;99.90;;;;;;4931103;29;20467;-65
2022/11/14 00:24:05;;;;;;;14.20;10.97;;;7.40;99.90;;;;;;4932608;29;20175;-67
2022/11/14 00:26:31;;;;;;;15.20;11.90;;;7.30;99.90;;;;;;4931402;29;20408;-66
2022/11/14 00:28:56;;;;;;;17.57;11.17;;;7.30;99.90;;;;;;4932754;29;20745;-66
2022/11/14 00:31:22;;;;;;;13.00;10.93;;;7.40;99.90;;;;;;4935426;29;20457;-65
2022/11/14 00:33:48;;;;;;;14.70;10.83;;;7.40;99.90;;;;;;4936434;29;20892;-66
2022/11/14 00:36:14;;;;;;;14.77;11.03;;;7.40;99.90;;;;;;4936234;29;20183;-65
2022/11/14 00:38:39;;;;;;;14.67;9.90;;;7.30;1.00;;;;;;4936633;29;20198;-66
2022/11/14 00:41:05;;;;;;;13.20;11.80;;;7.30;1.00;;;;;;4935373;29;20214;-67
2022/11/14 00:43:31;;;;;;;15.00;11.50;;;7.30;1.00;;;;;;4936547;29;20207;-66
2022/11/14 00:45:56;;;;;;;14.70;11.23;;;7.30;1.00;;;;;;4936222;29;20196;-66
2022/11/14 00:48:22;;;;;;;16.20;12.33;;;7.30;1.00;;;;;;4936516;29;20178;-66
2022/11/14 00:50:48;;;;;;;22.10;12.50;;;7.30;1.00;;;;;;4934747;29;20490;-67
2022/11/14 00:53:14;;;;;;;13.17;10.53;;;7.30;1.00;;;;;;4936257;29;20190;-66
2022/11/14 00:55:41;;;;;;;17.67;12.40;;;7.30;1.00;;;;;;4936008;29;20868;-67
2022/11/14 00:58:07;;;;;;;19.23;11.93;;;7.20;1.00;;;;;;4936523;29;20195;-67
2022/11/14 01:00:33;;;;;;;14.73;11.60;;;7.20;1.00;;;;;;4934725;29;20455;-65
2022/11/14 01:02:59;;;;;;;16.27;11.60;;;7.20;1.00;;;;;;4934957;29;20210;-65
2022/11/14 01:05:25;;;;;;;14.27;12.30;;;7.20;1.00;;;;;;4935300;29;20438;-66
2022/11/14 01:07:50;;;;;;;16.07;12.30;;;7.20;1.00;;;;;;4936263;29;20639;-66
2022/11/14 01:10:17;;;;;;;13.37;10.90;;;7.20;1.00;;;;;;4935439;29;20446;-65
2022/11/14 01:12:43;;;;;;;17.90;11.00;;;7.30;1.00;;;;;;4935262;29;20286;-67
2022/11/14 01:15:09;;;;;;;15.23;12.40;;;7.30;1.00;;;;;;4935526;29;20780;-65
2022/11/14 01:17:34;;;;;;;14.27;11.70;;;7.30;1.00;;;;;;4935806;29;20179;-66
2022/11/14 01:20:00;;;;;;;20.80;11.73;;;7.30;1.00;;;;;;4935311;29;20413;-66
2022/11/14 01:22:28;;;;;;;16.07;12.10;;;7.30;1.00;;;;;;4934486;29;20215;-67
2022/11/14 01:24:54;;;;;;;17.13;13.50;;;7.30;1.00;;;;;;4934626;29;20167;-66
2022/11/14 01:27:20;;;;;;;17.43;11.83;;;7.30;1.00;;;;;;4934798;29;21139;-66
2022/11/14 01:29:45;;;;;;;19.17;12.53;;;7.30;1.00;;;;;;4935506;29;20413;-66
2022/11/14 01:32:11;;;;;;;19.10;13.07;;;7.40;1.00;;;;;;4957225;23;20246;-66
2022/11/14 01:34:36;;;;;;;14.80;10.77;;;7.40;1.00;;;;;;4955011;28;20166;-68
2022/11/14 01:37:02;;;;;;;15.37;11.80;;;7.40;1.00;;;;;;4953869;29;20177;-67
2022/11/14 01:39:28;;;;;;;17.30;13.33;;;7.40;1.00;;;;;;4954720;29;20173;-68
2022/11/14 01:41:54;;;;;;;15.83;11.60;;;7.30;1.00;;;;;;4954001;28;20830;-67
2022/11/14 01:44:45;;;;;;;18.20;12.40;;;7.20;1.00;;;;;;4956612;29;20247;-68
2022/11/14 01:47:14;;;;;;;14.90;10.93;;;7.30;1.00;;;;;;4956320;29;20402;-68
2022/11/14 01:49:45;;;;;;;16.57;13.10;;;7.30;1.00;;;;;;4956363;29;20416;-67
2022/11/14 01:52:26;;;;;;;17.30;12.93;;;7.20;1.00;;;;;;4955088;28;20428;-67
2022/11/14 01:54:59;;;;;;;20.30;11.97;;;7.10;1.00;;;;;;4956370;29;20441;-67
2022/11/14 01:57:30;;;;;;;17.60;10.50;;;7.10;1.00;;;;;;4956376;29;21146;-67
2022/11/14 02:00:00;;;;;;;17.93;11.50;;;7.20;1.00;;;;;;4956203;29;20406;-67
2022/11/14 02:02:26;;;;;;;17.10;11.77;;;7.20;1.00;;;;;;4958650;28;20462;-67
2022/11/14 02:04:59;;;;;;;14.77;11.40;;;7.00;1.00;;;;;;4961806;29;20495;-66
2022/11/14 02:07:27;;;;;;;15.53;12.13;;;7.00;1.00;;;;;;4954708;29;20186;-67
2022/11/14 02:09:54;;;;;;;17.70;12.80;;;7.00;1.00;;;;;;4955585;29;20759;-68
2022/11/14 02:12:22;;;;;;;17.27;12.40;;;7.20;1.00;;;;;;4955171;28;20429;-66
2022/11/14 02:14:51;;;;;;;31.40;12.80;;;7.20;1.00;;;;;;4956157;29;20502;-66
2022/11/14 02:17:18;;;;;;;17.97;14.60;;;7.30;1.00;;;;;;4954986;29;20754;-67
2022/11/14 02:19:50;;;;;;;15.53;12.57;;;7.30;1.00;;;;;;4955326;29;20981;-67
2022/11/14 02:22:16;;;;;;;14.87;10.57;;;7.30;1.00;;;;;;4954235;28;20826;-67
2022/11/14 02:24:42;;;;;;;15.80;11.90;;;7.30;1.00;;;;;;4955714;29;20461;-67
2022/11/14 02:27:10;;;;;;;15.87;11.47;;;7.30;1.00;;;;;;4954636;29;20221;-66
2022/11/14 02:29:36;;;;;;;19.70;12.80;;;7.30;1.00;;;;;;4955731;29;20494;-66
2022/11/14 02:32:02;;;;;;;13.27;11.10;;;7.30;1.00;;;;;;4952838;28;21000;-67
2022/11/14 02:34:28;;;;;;;16.10;12.10;;;7.30;1.00;;;;;;4955846;29;20463;-66
2022/11/14 02:36:55;;;;;;;12.57;10.97;;;7.40;1.00;;;;;;4955345;29;20895;-67
2022/11/14 02:39:21;;;;;;;13.80;10.40;;;7.50;1.00;;;;;;4956363;29;20261;-67
2022/11/14 02:41:48;;;;;;;20.23;12.83;;;7.30;1.00;;;;;;4954533;28;20461;-67
2022/11/14 02:44:14;;;;;;;16.77;12.77;;;7.10;1.00;;;;;;4955450;29;20401;-66
2022/11/14 02:46:39;;;;;;;16.70;11.40;;;7.10;1.00;;;;;;4955352;29;20402;-67
2022/11/14 02:49:05;;;;;;;18.73;13.30;;;7.10;1.00;;;;;;4955717;29;20175;-67
2022/11/14 02:51:31;;;;;;;15.20;11.80;;;7.10;1.00;;;;;;4954209;28;20196;-67
2022/11/14 02:53:56;;;;;;;17.07;13.73;;;7.10;1.00;;;;;;4955516;29;20170;-67
2022/11/14 02:56:22;;;;;;;14.27;11.67;;;7.10;1.00;;;;;;4955363;29;20202;-67
2022/11/14 02:58:48;;;;;;;14.60;11.17;;;7.20;1.00;;;;;;4955611;29;20177;-67
2022/11/14 03:01:13;;;;;;;17.80;11.33;;;7.10;1.00;;;;;;4954171;28;20210;-66
2022/11/14 03:03:39;;;;;;;12.97;10.20;;;7.20;1.00;;;;;;4954670;29;20720;-67
2022/11/14 03:06:05;;;;;;;15.10;11.67;;;7.20;1.00;;;;;;4954846;28;20250;-66
2022/11/14 03:08:31;;;;;;;16.00;12.70;;;7.20;1.00;;;;;;4955360;29;20171;-67
2022/11/14 03:11:07;;;;;;;16.13;12.30;;;7.10;1.00;;;;;;4952959;29;20410;-67
2022/11/14 03:13:33;;;;;;;15.30;11.97;;;7.30;1.00;;;;;;4955094;29;20489;-67
2022/11/14 03:16:05;;;;;;;19.70;13.03;;;7.20;1.00;;;;;;4954849;29;20444;-67
2022/11/14 03:18:30;;;;;;;20.97;13.03;;;7.30;1.00;;;;;;4955396;29;20938;-67
2022/11/14 03:20:56;;;;;;;15.80;11.97;;;7.30;1.00;;;;;;4953482;29;20462;-67
2022/11/14 03:23:22;;;;;;;13.40;10.27;;;7.30;1.00;;;;;;4953843;29;20194;-67
2022/11/14 03:25:47;;;;;;;22.20;12.80;;;7.30;1.00;;;;;;4954862;28;20181;-64
2022/11/14 03:28:13;;;;;;;24.27;11.83;;;7.40;1.00;;;;;;4954644;29;20181;-67
2022/11/14 03:30:39;;;;;;;20.30;11.80;;;7.30;1.00;;;;;;4953839;29;20205;-67
2022/11/14 03:33:04;;;;;;;17.90;11.80;;;7.30;1.00;;;;;;4952932;29;20277;-67
2022/11/14 03:35:30;;;;;;;14.87;11.80;;;7.30;1.00;;;;;;4954205;29;20218;-67
2022/11/14 03:37:56;;;;;;;15.13;11.50;;;7.30;1.00;;;;;;4954802;29;20179;-67
2022/11/14 03:40:21;;;;;;;16.80;11.57;;;7.30;1.00;;;;;;4954443;29;20174;-67
2022/11/14 03:42:47;;;;;;;18.10;12.30;;;7.20;1.00;;;;;;4954476;28;20217;-67
2022/11/14 03:45:13;;;;;;;14.77;10.87;;;7.30;1.00;;;;;;4953981;28;20555;-67
2022/11/14 03:47:38;;;;;;;11.97;10.10;;;7.30;1.00;;;;;;4954043;29;20304;-67
2022/11/14 03:50:04;;;;;;;18.13;10.33;;;7.20;1.00;;;;;;4954055;29;20178;-67
2022/11/14 03:52:30;;;;;;;15.50;11.07;;;7.10;1.00;;;;;;4953694;28;20205;-67
2022/11/14 03:54:56;;;;;;;12.73;10.10;;;7.00;1.00;;;;;;4954096;28;20907;-66
2022/11/14 03:57:21;;;;;;;12.53;11.10;;;7.00;1.00;;;;;;4959664;29;20697;-66
2022/11/14 03:59:47;;;;;;;13.07;10.60;;;7.00;1.00;;;;;;4958228;29;20546;-67
2022/11/14 04:02:13;;;;;;;12.40;10.03;;;7.10;1.00;;;;;;4952181;29;20205;-67
2022/11/14 04:04:38;;;;;;;11.13;9.53;;;7.10;1.00;;;;;;4953021;28;20174;-66
2022/11/14 04:07:05;;;;;;;13.70;10.50;;;7.10;1.00;;;;;;4953546;29;20258;-67
2022/11/14 04:09:30;;;;;;;13.30;10.67;;;7.10;1.00;;;;;;4953732;29;20181;-66
2022/11/14 04:11:56;;;;;;;17.37;11.90;;;7.20;1.00;;;;;;4952587;29;20429;-67
2022/11/14 04:14:22;;;;;;;16.47;11.60;;;7.30;1.00;;;;;;4953530;29;20187;-67
2022/11/14 04:16:47;;;;;;;17.20;11.33;;;7.30;1.00;;;;;;4953650;29;20189;-66
2022/11/14 04:19:13;;;;;;;20.20;11.27;;;7.30;1.00;;;;;;4952539;29;20194;-68
2022/11/14 04:21:39;;;;;;;14.70;10.80;;;7.40;1.00;;;;;;4953247;29;20202;-67
2022/11/14 04:24:05;;;;;;;14.67;11.40;;;7.30;1.00;;;;;;4953837;29;20178;-67
2022/11/14 04:26:30;;;;;;;20.13;11.13;;;7.40;1.00;;;;;;4953613;29;20170;-67
2022/11/14 04:28:56;;;;;;;18.00;11.63;;;7.40;1.00;;;;;;4954115;29;20723;-67
2022/11/14 04:31:22;;;;;;;17.90;12.13;;;7.50;1.00;;;;;;4952420;29;20300;-65
2022/11/14 04:33:47;;;;;;;18.67;13.63;;;7.50;1.00;;;;;;4952169;29;20230;-66
2022/11/14 04:36:13;;;;;;;20.80;12.93;;;7.50;1.00;;;;;;4951450;29;20484;-66
2022/11/14 04:38:39;;;;;;;17.03;12.20;;;7.40;1.00;;;;;;4952328;29;20174;-64
2022/11/14 04:41:04;;;;;;;18.90;12.40;;;7.40;1.00;;;;;;4950915;29;20196;-65
2022/11/14 04:43:30;;;;;;;15.27;11.80;;;7.50;1.00;;;;;;4951849;29;20505;-65
2022/11/14 04:45:56;;;;;;;16.90;12.23;;;7.50;1.00;;;;;;4951803;29;20245;-66
2022/11/14 04:48:21;;;;;;;21.07;16.03;;;7.50;1.00;;;;;;4952225;28;20655;-66
2022/11/14 04:50:47;;;;;;;17.00;12.57;;;7.50;1.00;;;;;;4950383;29;20202;-64
2022/11/14 04:53:13;;;;;;;30.40;16.77;;;7.40;1.00;;;;;;4950299;29;20202;-64
2022/11/14 04:55:38;;;;;;;19.03;14.40;;;7.30;1.00;;;;;;4951570;29;20225;-65
2022/11/14 04:58:04;;;;;;;21.03;13.13;;;7.30;1.00;;;;;;4951800;29;20237;-64
2022/11/14 05:00:30;;;;;;;26.30;13.87;;;7.30;1.00;;;;;;4950498;29;20174;-66
2022/11/14 05:02:58;;;;;;;25.80;15.07;;;7.40;1.00;;;;;;4951839;28;20237;-64
2022/11/14 05:05:23;;;;;;;33.57;16.53;;;7.30;1.00;;;;;;4951208;29;20569;-64
2022/11/14 05:07:49;;;;;;;28.80;15.10;;;7.30;1.00;;;;;;4952300;29;20434;-66
2022/11/14 05:10:15;;;;;;;28.37;14.53;;;7.40;1.00;;;;;;4951050;29;20170;-65
2022/11/14 05:12:40;;;;;;;29.50;15.43;;;7.50;1.00;;;;;;4950884;28;20273;-66
2022/11/14 05:15:07;;;;;;;24.23;14.60;;;7.50;1.00;;;;;;4951967;28;20178;-66
2022/11/14 05:17:32;;;;;;;22.20;15.13;;;7.50;1.00;;;;;;4955878;29;20513;-65
2022/11/14 05:19:58;;;;;;;23.10;12.67;;;7.60;1.00;;;;;;4952662;28;20434;-66
2022/11/14 05:22:24;;;;;;;19.57;13.27;;;7.60;1.00;;;;;;4949477;28;20242;-62
2022/11/14 05:24:49;;;;;;;21.80;13.40;;;7.60;1.00;;;;;;4950775;28;20179;-65
2022/11/14 05:27:15;;;;;;;23.00;14.03;;;7.40;1.00;;;;;;4953316;29;20182;-66
2022/11/14 05:29:41;;;;;;;16.77;13.00;;;7.50;1.00;;;;;;4955341;29;20229;-66
2022/11/14 05:32:06;;;;;;;27.30;14.23;;;7.60;1.00;;;;;;4957974;28;20221;-66
2022/11/14 05:34:32;;;;;;;19.73;14.17;;;7.60;1.00;;;;;;4952444;28;20571;-65
2022/11/14 05:36:58;;;;;;;18.10;13.27;;;7.60;1.00;;;;;;4953787;28;20277;-66
2022/11/14 05:39:23;;;;;;;25.53;16.37;;;7.60;1.00;;;;;;4947296;28;20234;-64
2022/11/14 05:41:49;;;;;;;20.70;14.10;;;7.60;1.00;;;;;;4964544;28;20220;-66
2022/11/14 05:44:15;;;;;;;30.17;16.40;;;7.70;1.00;;;;;;4974147;29;20201;-65
2022/11/14 05:46:40;;;;;;;22.70;14.73;;;7.70;1.00;;;;;;4973258;28;20202;-65
2022/11/14 05:49:06;;;;;;;26.27;15.40;;;7.70;1.00;;;;;;4962737;29;20179;-68
2022/11/14 05:51:32;;;;;;;27.77;14.20;;;7.70;1.00;;;;;;4961542;29;20210;-67
2022/11/14 05:53:57;;;;;;;21.27;13.77;;;7.70;1.00;;;;;;4964533;29;20186;-67
2022/11/14 05:56:23;;;;;;;17.80;13.57;;;7.70;1.00;;;;;;4960769;29;20175;-68
2022/11/14 05:58:49;;;;;;;25.40;14.90;;;7.60;1.00;;;;;;4968475;29;20426;-67
2022/11/14 06:01:17;;;;;;;20.17;14.50;;;7.60;1.00;;;;;;4969182;28;20207;-67
2022/11/14 06:03:45;;;;;;;22.10;14.93;;;7.60;1.00;;;;;;4961081;29;20197;-67
2022/11/14 06:06:16;;;;;;;31.43;16.60;;;7.50;1.00;;;;;;4949132;28;20446;-67
2022/11/14 06:08:42;;;;;;;41.97;16.40;;;7.30;1.00;;;;;;4946549;29;20725;-67
2022/11/14 06:11:14;;;;;;;29.70;16.13;;;7.50;1.00;;;;;;4949098;28;20429;-67
2022/11/14 06:13:41;;;;;;;42.50;16.67;;;7.60;1.00;;;;;;4951434;28;20193;-67
2022/11/14 06:16:11;;;;;;;27.43;14.50;;;7.60;1.00;;;;;;4948931;28;20496;-67
2022/11/14 06:18:37;;;;;;;25.73;14.20;;;7.60;1.00;;;;;;4946450;29;20434;-67
2022/11/14 06:21:09;;;;;;;25.73;13.83;;;7.70;1.00;;;;;;4949973;28;20825;-67
2022/11/14 06:23:35;;;;;;;38.00;15.87;;;7.70;1.00;;;;;;4951105;29;20426;-67
2022/11/14 06:26:07;;;;;;;18.43;13.43;;;7.60;1.00;;;;;;4949686;29;20484;-67
2022/11/14 06:28:33;;;;;;;21.93;13.87;;;7.60;1.00;;;;;;4943449;28;20182;-66
2022/11/14 06:30:59;;;;;;;17.97;13.00;;;7.70;1.00;;;;;;4948097;28;20457;-65
2022/11/14 06:33:32;;;;;;;17.80;13.57;;;7.70;1.00;;;;;;4948094;28;20189;-69
2022/11/14 06:35:59;;;;;;;15.97;13.50;;;7.60;1.00;;;;;;4944729;29;20939;-66
2022/11/14 06:38:25;;;;;;;19.03;13.40;;;7.60;1.00;;;;;;4949074;29;20761;-67
2022/11/14 06:40:51;;;;;;;29.30;15.67;;;7.60;1.00;;;;;;4948088;29;20497;-67
2022/11/14 06:43:17;;;;;;;22.00;12.67;;;7.60;1.00;;;;;;4942098;28;20492;-67
2022/11/14 06:45:42;;;;;;;12.93;8.10;;;7.50;1.00;;;;;;4946354;29;20209;-70
2022/11/14 06:48:08;;;;;;;20.23;13.90;;;8.20;1.00;;;;;;4943182;29;20734;-69
2022/11/14 06:50:34;;;;;;;20.57;14.67;;;8.10;1.00;;;;;;4945793;29;20183;-69
2022/11/14 06:52:59;;;;;;;43.00;17.10;;;7.90;1.00;;;;;;4949650;28;20710;-68
2022/11/14 06:55:25;;;;;;;22.97;15.07;;;7.90;1.00;;;;;;4950148;29;20258;-68
2022/11/14 06:57:54;;;;;;;20.37;14.80;;;8.00;1.00;;;;;;4950391;29;20194;-69
2022/11/14 07:00:21;;;;;;;26.87;13.60;;;8.00;1.00;;;;;;4946563;28;20211;-68
2022/11/14 07:02:47;;;;;;;21.83;14.80;;;8.00;1.00;;;;;;4948041;28;20511;-68
2022/11/14 07:05:14;;;;;;;28.40;15.23;;;8.00;1.00;;;;;;4942156;29;20434;-67
2022/11/14 07:07:39;;;;;;;29.63;16.17;;;8.00;1.00;;;;;;4942732;28;21151;-69
2022/11/14 07:10:05;;;;;;;18.83;13.90;;;8.10;1.00;;;;;;4946955;29;20434;-68
2022/11/14 07:12:31;;;;;;;20.77;15.43;;;8.10;1.00;;;;;;4949264;28;20224;-68
2022/11/14 07:14:57;;;;;;;21.33;13.97;;;7.80;1.00;;;;;;4949112;28;20437;-68
2022/11/14 07:17:23;;;;;;;32.17;13.93;;;7.70;1.00;;;;;;4947679;29;20699;-68
2022/11/14 07:19:49;;;;;;;20.60;15.60;;;7.80;1.00;;;;;;4944181;29;20440;-69
2022/11/14 07:22:15;;;;;;;27.73;16.40;;;7.80;1.00;;;;;;4943292;28;20218;-69
2022/11/14 07:24:40;;;;;;;21.67;14.30;;;7.70;1.00;;;;;;4944542;28;20187;-68
2022/11/14 07:27:09;;;;;;;18.60;13.27;;;7.80;1.00;;;;;;4944087;29;20195;-68
2022/11/14 07:29:35;;;;;;;22.67;15.50;;;7.80;1.00;;;;;;4949648;29;20166;-68
2022/11/14 07:32:01;;;;;;;21.33;15.57;;;7.80;1.00;;;;;;4969671;23;20537;-68
2022/11/14 07:34:27;;;;;;;19.17;14.87;;;7.90;1.00;;;;;;4947017;28;20926;-68
2022/11/14 07:36:53;;;;;;;18.97;14.43;;;7.80;1.00;;;;;;4943578;29;20190;-67
2022/11/14 07:39:19;;;;;;;22.83;15.90;;;7.80;1.00;;;;;;4946200;28;20675;-68
2022/11/14 07:41:45;;;;;;;19.53;14.43;;;8.00;1.00;;;;;;4941459;28;20477;-68
2022/11/14 07:44:11;;;;;;;20.27;14.67;;;8.10;1.00;;;;;;4965933;28;20177;-68
2022/11/14 07:46:36;;;;;;;21.17;14.40;;;8.00;1.00;;;;;;4970861;28;20196;-68
2022/11/14 07:49:02;;;;;;;19.10;14.17;;;8.00;1.00;;;;;;4955905;28;20258;-68
2022/11/14 07:51:28;;;;;;;26.77;15.20;;;8.10;1.00;;;;;;4950022;29;20257;-68
2022/11/14 07:53:53;;;;;;;32.90;16.60;;;8.10;1.00;;;;;;4951746;28;20265;-68
2022/11/14 07:56:21;;;;;;;47.53;17.17;;;8.30;1.00;;;;;;4963868;28;20281;-68
2022/11/14 07:58:47;;;;;;;31.10;17.40;;;8.50;1.00;;;;;;4961874;28;20244;-68
2022/11/14 08:01:13;;;;;;;24.77;15.87;;;8.50;1.00;;;;;;4967326;28;20474;-68
2022/11/14 08:03:39;;;;;;;21.33;14.33;;;8.40;1.00;;;;;;4956279;28;20777;-68
2022/11/14 08:06:08;;;;;;;29.43;14.50;;;8.40;1.00;;;;;;4954679;28;20437;-67
2022/11/14 08:08:34;;;;;;;21.20;14.67;;;8.10;1.00;;;;;;4960346;28;20536;-68
2022/11/14 08:11:00;;;;;;;22.83;14.03;;;8.20;1.00;;;;;;4950470;28;20935;-68
2022/11/14 08:13:27;;;;;;;22.97;14.27;;;8.00;1.00;;;;;;4951224;29;20569;-67
2022/11/14 08:15:53;;;;;;;23.10;15.17;;;7.90;1.00;;;;;;4957738;28;20452;-67
2022/11/14 08:18:19;;;;;;;22.73;13.97;;;7.90;1.00;;;;;;4961477;28;20514;-68
2022/11/14 08:20:45;;;;;;;18.57;13.03;;;7.90;1.00;;;;;;4962007;28;20441;-68
2022/11/14 08:23:12;;;;;;;17.87;13.90;;;7.90;1.00;;;;;;4966549;28;20309;-68
2022/11/14 08:25:37;;;;;;;22.00;14.93;;;7.80;1.00;;;;;;4960384;28;20997;-68
2022/11/14 08:28:06;;;;;;;18.73;14.10;;;7.70;1.00;;;;;;4959646;28;20410;-68
2022/11/14 08:30:32;;;;;;;19.77;14.47;;;7.70;1.00;;;;;;4950305;29;20167;-67
2022/11/14 08:33:02;;;;;;;20.30;14.40;;;7.70;1.00;;;;;;4951479;28;20480;-67
2022/11/14 08:35:27;;;;;;;22.23;16.30;;;7.70;1.00;;;;;;4957908;28;20236;-67
2022/11/14 08:37:53;;;;;;;23.47;15.50;;;7.70;1.00;;;;;;4970318;28;20924;-67
2022/11/14 08:40:19;;;;;;;18.57;14.93;;;7.70;1.00;;;;;;4968421;28;20220;-67
2022/11/14 08:42:44;;;;;;;21.77;15.20;;;7.80;1.00;;;;;;4957627;28;20268;-67
2022/11/14 08:45:10;;;;;;;22.60;16.27;;;7.60;1.00;;;;;;4963675;28;20229;-67
2022/11/14 08:47:36;;;;;;;27.57;17.40;;;7.70;1.00;;;;;;4951068;28;20177;-66
2022/11/14 08:50:02;;;;;;;22.80;16.50;;;7.60;1.00;;;;;;4965952;28;20177;-67
2022/11/14 08:52:28;;;;;;;20.83;15.60;;;7.60;1.00;;;;;;4968959;28;20981;-67
2022/11/14 08:54:53;;;;;;;21.30;14.90;;;7.70;1.00;;;;;;4961405;28;20440;-67
2022/11/14 08:57:19;;;;;;;22.33;16.07;;;7.90;1.00;;;;;;4970920;28;20194;-69
2022/11/14 08:59:45;;;;;;;21.63;15.97;;;8.00;1.00;;;;;;4969046;28;20497;-68
2022/11/14 09:02:12;;;;;;;22.47;15.47;;;7.90;1.00;;;;;;4961673;28;20245;-67
2022/11/14 09:04:38;;;;;;;27.13;16.30;;;7.90;1.00;;;;;;4961582;28;20216;-67
2022/11/14 09:07:04;;;;;;;30.00;17.30;;;8.00;1.00;;;;;;4967006;28;20449;-68
2022/11/14 09:09:30;;;;;;;24.67;17.00;;;8.10;1.00;;;;;;4970962;28;20197;-68
2022/11/14 09:11:55;;;;;;;38.10;17.90;;;8.10;1.00;;;;;;4967175;28;20202;-68
2022/11/14 09:14:21;;;;;;;34.00;15.87;;;8.30;1.00;;;;;;4966499;28;20643;-68
2022/11/14 09:16:47;;;;;;;23.70;15.30;;;8.40;1.00;;;;;;4961876;28;20186;-67
2022/11/14 09:19:13;;;;;;;28.07;16.83;;;8.40;1.00;;;;;;4971202;28;20220;-68
2022/11/14 09:21:38;;;;;;;62.13;20.87;;;8.60;1.00;;;;;;4965848;28;20878;-68
2022/11/14 09:24:04;;;;;;;55.47;17.50;;;8.70;1.00;;;;;;4965266;28;20185;-68
2022/11/14 09:26:30;;;;;;;30.13;15.13;;;8.90;1.00;;;;;;4966910;28;20269;-67
2022/11/14 09:28:55;;;;;;;20.47;15.53;;;9.00;1.00;;;;;;4967755;28;20240;-67
2022/11/14 09:31:21;;;;;;;21.90;14.77;;;8.80;1.00;;;;;;4965815;28;20182;-67
2022/11/14 09:33:47;;;;;;;20.43;15.97;;;8.90;1.00;;;;;;4957490;28;20190;-68
2022/11/14 09:36:14;;;;;;;17.63;9.70;;;9.10;1.00;;;;;;4967206;28;20193;-68
2022/11/14 09:38:42;;;;;;;18.10;11.50;;;9.90;1.00;;;;;;4957475;28;20197;-68
2022/11/14 09:41:11;;;;;;;14.50;10.90;;;11.50;1.00;;;;;;4963097;28;20547;-67
2022/11/14 09:43:46;;;;;;;21.70;10.70;;;13.00;1.00;;;;;;4962297;28;20554;-68
2022/11/14 09:46:21;;;;;;;25.90;12.33;;;14.00;1.00;;;;;;4963549;28;20523;-68
2022/11/14 09:48:47;;;;;;;43.07;14.93;;;14.30;1.00;;;;;;4967908;28;20424;-68
2022/11/14 09:51:21;;;;;;;51.43;16.80;;;14.10;1.00;;;;;;4968858;28;20476;-66
2022/11/14 09:54:11;;;;;;;35.23;15.57;;;12.80;99.90;;;;;;4969587;28;20436;-64
2022/11/14 09:56:37;;;;;;;22.73;15.20;;;12.00;1.00;;;;;;4963047;28;20488;-69
2022/11/14 09:59:07;;;;;;;21.43;16.13;;;11.50;1.00;;;;;;4966494;28;20425;-66
2022/11/14 10:01:44;;;;;;;38.33;16.17;;;11.10;99.90;;;;;;4958300;28;20217;-66
2022/11/14 10:04:26;;;;;;;25.63;15.10;;;10.90;1.00;;;;;;4968653;28;20500;-68
2022/11/14 10:07:19;;;;;;;27.27;16.60;;;10.90;99.90;;;;;;4962438;28;20434;-65
2022/11/14 10:09:56;;;;;;;19.80;14.70;;;11.00;1.00;;;;;;4962621;28;20874;-68
2022/11/14 10:12:26;;;;;;;21.10;14.30;;;11.70;29.90;;;;;;4960237;28;20830;-68
2022/11/14 10:15:00;;;;;;;17.50;13.20;;;11.90;99.90;;;;;;4968283;28;21177;-68
2022/11/14 10:17:38;;;;;;;20.00;9.93;;;12.10;99.90;;;;;;4966135;28;20898;-67
2022/11/14 10:20:22;;;;;;;23.57;13.57;;;12.50;1.00;;;;;;4964305;28;20496;-67
2022/11/14 10:23:06;;;;;;;21.60;12.87;;;12.90;1.00;;;;;;4961820;28;20982;-67
2022/11/14 10:25:50;;;;;;;21.27;12.00;;;12.10;1.00;;;;;;4963147;28;20440;-67
2022/11/14 10:28:35;;;;;;;17.87;14.07;;;11.80;1.00;;;;;;4968060;28;20437;-66
2022/11/14 10:31:39;;;;;;;17.67;13.03;;;11.80;1.00;;;;;;4961411;28;20425;-67
2022/11/14 10:34:12;;;;;;;20.10;13.37;;;11.80;1.00;;;;;;4964409;28;20455;-67
2022/11/14 10:36:47;;;;;;;25.10;13.80;;;11.60;1.00;;;;;;4959143;28;20453;-67
2022/11/14 10:39:16;;;;;;;19.33;11.90;;;11.60;99.90;;;;;;4965616;28;20468;-67
2022/11/14 10:41:43;;;;;;;36.27;13.80;;;11.50;99.90;;;;;;4961345;28;20477;-66
2022/11/14 10:44:18;;;;;;;20.33;13.10;;;11.40;1.00;;;;;;4966895;28;20472;-67
2022/11/14 10:46:51;;;;;;;19.07;11.30;;;11.40;1.00;;;;;;4956678;28;20410;-67
2022/11/14 10:49:24;;;;;;;21.17;13.33;;;11.30;41.70;;;;;;4956090;28;20500;-68
2022/11/14 10:51:58;;;;;;;13.97;12.10;;;11.20;1.00;;;;;;4962444;28;20541;-67
2022/11/14 10:54:42;;;;;;;23.43;13.67;;;11.20;1.00;;;;;;4966593;28;20445;-67
2022/11/14 10:57:19;;;;;;;40.47;13.20;;;11.10;99.90;;;;;;4962105;28;20743;-68
2022/11/14 10:59:46;;;;;;;22.63;13.60;;;11.20;1.00;;;;;;4963955;28;20552;-67
2022/11/14 11:02:12;;;;;;;89.10;20.83;;;11.20;99.90;;;;;;4962789;28;20481;-66
2022/11/14 11:04:40;;;;;;;89.50;19.63;;;11.40;99.90;;;;;;4961781;28;20464;-67
2022/11/14 11:07:08;;;;;;;114.00;20.20;;;11.40;99.90;;;;;;4957269;28;20830;-66
2022/11/14 11:12:22;;;;;;;21.63;11.13;;;11.20;1.00;;;;;;4964484;28;20455;-66
2022/11/14 11:15:07;;;;;;;26.07;10.90;;;11.10;32.70;;;;;;4963561;28;20433;-67
2022/11/14 11:17:33;;;;;;;15.40;7.73;;;11.10;99.90;;;;;;4957970;28;20468;-67
2022/11/14 11:20:30;;;;;;;26.70;10.43;;;12.10;1.00;;;;;;4963423;28;20502;-67
2022/11/14 11:23:08;;;;;;;18.83;9.70;;;12.50;1.00;;;;;;4967459;28;20685;-67
2022/11/14 11:25:35;;;;;;;14.63;9.40;;;11.90;99.90;;;;;;4966447;28;20460;-67
2022/11/14 11:28:10;;;;;;;15.43;10.40;;;11.80;99.90;;;;;;4961423;28;20440;-67
2022/11/14 11:30:36;;;;;;;16.40;8.67;;;11.70;99.90;;;;;;4961997;28;20478;-65
2022/11/14 11:33:20;;;;;;;15.50;10.17;;;11.70;99.90;;;;;;4955850;28;20528;-65
2022/11/14 11:35:49;;;;;;;15.67;8.30;;;11.70;99.90;;;;;;4968535;28;20906;-66
2022/11/14 11:38:16;;;;;;;10.43;7.80;;;11.70;99.90;;;;;;4967102;28;20437;-66
2022/11/14 11:40:49;;;;;;;11.50;8.53;;;11.90;99.90;;;;;;4968163;28;20792;-67
2022/11/14 11:43:44;;;;;;;11.17;7.63;;;12.00;99.90;;;;;;4958780;28;20462;-66
2022/11/14 11:46:29;;;;;;;11.57;7.70;;;12.10;99.90;;;;;;4960235;28;20441;-66
2022/11/14 11:49:05;;;;;;;16.47;6.47;;;12.20;99.90;;;;;;4962404;28;20519;-66
2022/11/14 11:51:37;;;;;;;12.83;5.37;;;12.20;99.90;;;;;;4959957;28;20429;-65
2022/11/14 11:54:12;;;;;;;43.20;11.13;;;12.10;1.00;;;;;;4963712;28;20515;-67
2022/11/14 11:56:42;;;;;;;54.80;11.43;;;12.10;99.90;;;;;;4961260;28;20437;-67
2022/11/14 11:59:25;;;;;;;99.20;14.73;;;12.10;99.90;;;;;;4955459;28;20446;-67
2022/11/14 12:01:51;;;;;;;29.63;7.20;;;12.20;99.90;;;;;;4966776;28;20527;-67
2022/11/14 12:04:17;;;;;;;31.10;7.30;;;12.30;99.90;;;;;;4962577;28;20468;-67
2022/11/14 12:07:02;;;;;;;29.40;8.57;;;12.60;12.20;;;;;;4961009;28;20206;-66
2022/11/14 12:09:39;;;;;;;27.70;7.40;;;12.70;1.00;;;;;;4955637;28;20193;-66
2022/11/14 12:12:21;;;;;;;39.30;9.00;;;12.60;1.00;;;;;;4962692;28;20526;-67
2022/11/14 12:14:57;;;;;;;14.97;5.50;;;12.60;1.00;;;;;;4966082;28;20515;-66
2022/11/14 12:17:51;;;;;;;6.40;5.20;;;12.60;1.00;;;;;;4961875;28;20441;-67
2022/11/14 12:20:31;;;;;;;14.73;5.73;;;12.50;1.00;;;;;;4955974;28;20778;-67
2022/11/14 12:23:06;;;;;;;37.73;9.40;;;12.40;1.00;;;;;;4968920;28;20481;-67
2022/11/14 12:25:40;;;;;;;7.90;4.60;;;12.40;99.90;;;;;;4964509;28;20440;-66
2022/11/14 12:28:34;;;;;;;10.23;5.43;;;12.20;1.00;;;;;;4961057;28;20408;-67
2022/11/14 12:31:03;;;;;;;17.70;5.90;;;12.20;99.90;;;;;;4962360;28;20458;-66
2022/11/14 12:33:33;;;;;;;5.00;4.23;;;12.20;99.90;;;;;;4969476;28;20551;-66
2022/11/14 12:36:02;;;;;;;5.13;4.17;;;12.10;99.90;;;;;;4958966;28;20531;-67
2022/11/14 12:38:43;;;;;;;8.17;4.60;;;12.10;99.90;;;;;;4970253;28;20532;-66
2022/11/14 12:41:10;;;;;;;8.37;5.23;;;12.10;99.90;;;;;;4964532;28;20476;-66
2022/11/14 12:43:36;;;;;;;14.40;4.97;;;12.20;99.90;;;;;;4965726;28;20447;-66
2022/11/14 12:46:08;;;;;;;7.10;5.80;;;12.20;99.90;;;;;;4962925;28;20425;-66
2022/11/14 12:48:39;;;;;;;19.47;6.17;;;12.20;99.90;;;;;;4965553;28;20189;-66
2022/11/14 12:51:25;;;;;;;10.30;5.47;;;12.40;99.90;;;;;;4970417;28;20543;-66
2022/11/14 12:53:52;;;;;;;7.73;4.97;;;12.50;99.90;;;;;;4969198;28;20469;-66